Latest Weather Observations for Townsville

IDQ60801

Issued at 9:32 am EST Friday 30 September 2016 (issued every 30 minutes, with the page automatically refreshed every 10 minutes)

About weather observations | Map of weather stations | Latest weather observations for QLD | Other Formats
Station Details ID: 032040 Name: TOWNSVILLE AERO Lat: -19.25 Lon: 146.77 Height: 4.34 m
Data from the previous 72 hours. | See also: Recent months at Townsville
Date/Time
EST
Temp
°C
App
Temp
°C
Dew
Point
°C
Rel
Hum
%
Delta-T
°C
Wind Press
QNH
hPa
Press
MSL
hPa
Rain since
9am
mm
Dir  Spd
km/h
Gust
km/h
Spd
kts
Gust
kts
30/09:00am 29.0 29.4 19.1 55 6.4 SSW 15 20 8 11 1010.8 1010.8 0.2
30/08:30am 28.3 28.9 19.4 58 5.8 SSW 15 22 8 12 1010.6 1010.6 0.2
30/08:00am 27.8 29.5 21.0 66 4.5 WSW 13 19 7 10 1010.7 1010.7 0.2
30/07:30am 26.8 28.6 21.9 74 3.3 W 15 19 8 10 1010.3 1010.3 0.2
30/07:00am 26.1 29.6 22.9 82 2.2 WSW 9 11 5 6 1009.7 1009.7 0.2
30/06:30am 25.0 29.1 23.2 90 1.2 W 7 9 4 5 1009.5 1009.5 0.2
30/06:00am 24.5 27.9 22.7 90 1.2 NW 9 9 5 5 1009.1 1009.1 0.2
30/05:30am 24.9 29.0 23.0 89 1.3 W 6 7 3 4 1008.8 1008.8 0.2
30/05:00am 25.7 29.0 23.2 86 1.7 WNW 11 15 6 8 1008.5 1008.5 0.2
30/04:30am 25.8 28.0 23.2 85 1.8 NNW 17 24 9 13 1008.5 1008.5 0.2
30/04:10am 25.7 27.3 22.9 84 1.9 N 19 28 10 15 1008.1 1008.1 0.2
30/04:06am 25.7 27.3 22.9 84 1.9 NNW 19 28 10 15 1008.2 1008.2 0.2
30/04:00am 25.8 27.3 23.0 84 1.9 NNW 20 26 11 14 1008.4 1008.4 0.2
30/03:51am 25.9 27.3 22.8 83 2.1 NNW 20 28 11 15 1008.6 1008.6 0.2
30/03:41am 25.9 27.5 22.8 83 2.1 N 19 28 10 15 1008.5 1008.5 0.2
30/03:30am 25.9 26.9 22.8 83 2.1 NNW 22 32 12 17 1008.6 1008.6 0.2
30/03:27am 26.0 26.9 22.6 81 2.3 NNW 22 32 12 17 1008.6 1008.6 0.2
30/03:00am 26.0 27.4 22.6 81 2.3 NNW 19 28 10 15 1008.4 1008.4 0.2
30/02:37am 25.9 27.8 22.8 83 2.1 NNW 17 26 9 14 1008.8 1008.8 0.2
30/02:30am 25.8 27.8 23.0 84 1.9 NNW 17 20 9 11 1008.7 1008.7 0.2
30/02:26am 26.0 28.0 22.9 83 2.1 NNW 17 20 9 11 1008.8 1008.8 0.2
30/02:24am 26.0 28.0 22.9 83 2.1 N 17 26 9 14 1008.8 1008.8 0.2
30/02:00am 26.1 28.5 23.0 83 2.1 N 15 22 8 12 1009.2 1009.2 0.2
30/01:40am 26.0 28.0 22.9 83 2.1 N 17 24 9 13 1009.2 1009.2 0.2
30/01:30am 26.1 28.5 22.9 82 2.2 N 15 24 8 13 1009.2 1009.2 0.2
30/01:00am 26.0 28.0 22.9 83 2.1 N 17 22 9 12 1009.2 1009.2 0.2
30/12:54am 26.0 28.0 22.9 83 2.1 N 17 24 9 13 1009.3 1009.3 0.2
30/12:36am 26.0 28.0 22.9 83 2.1 N 17 22 9 12 1009.5 1009.5 0.2
30/12:30am 26.0 28.0 22.9 83 2.1 N 17 22 9 12 1009.5 1009.5 0.2
30/12:00am 26.0 28.5 23.1 84 2.0 N 15 20 8 11 1009.8 1009.8 0.2
 
Date/Time
EST
Temp
°C
App
Temp
°C
Dew
Point
°C
Rel
Hum
%
Delta-T
°C
Wind Press
QNH
hPa
Press
MSL
hPa
Rain since
9am
mm
Dir  Spd
km/h
Gust
km/h
Spd
kts
Gust
kts
29/11:30pm 26.0 27.6 22.9 83 2.1 N 19 26 10 14 1010.0 1010.0 0.2
29/11:19pm 26.0 27.6 22.9 83 2.1 N 19 26 10 14 1010.1 1010.1 0.2
29/11:13pm 26.0 28.0 22.9 83 2.1 N 17 22 9 12 1010.1 1010.1 0.2
29/11:00pm 26.0 27.6 22.9 83 2.1 N 19 28 10 15 1010.2 1010.2 0.2
29/10:30pm 26.0 28.7 22.9 83 2.1 N 13 19 7 10 1010.3 1010.3 0.2
29/10:19pm 26.0 28.4 22.9 83 2.1 N 15 19 8 10 1010.3 1010.3 0.2
29/10:18pm 26.0 28.4 22.9 83 2.1 N 15 20 8 11 1010.3 1010.3 0.2
29/10:00pm 26.0 28.4 22.9 83 2.1 N 15 19 8 10 1010.3 1010.3 0.2
29/09:47pm 25.9 28.3 23.0 84 2.0 N 15 22 8 12 1010.2 1010.2 0.2
29/09:30pm 25.9 27.8 22.8 83 2.1 N 17 24 9 13 1009.8 1009.8 0.2
29/09:21pm 25.8 27.4 22.8 83 2.0 N 19 28 10 15 1009.8 1009.8 0.2
29/09:00pm 25.9 27.3 22.6 82 2.2 N 19 26 10 14 1009.9 1009.9 0.2
29/08:56pm 25.9 27.3 22.6 82 2.2 N 19 26 10 14 1009.8 1009.8 0.2
29/08:52pm 26.0 27.8 22.6 81 2.3 N 17 26 9 14 1009.8 1009.8 0.2
29/08:30pm 25.8 28.4 22.7 83 2.1 N 13 19 7 10 1010.0 1010.0 0.2
29/08:19pm 25.9 28.4 22.5 81 2.3 N 13 17 7 9 1009.8 1009.8 0.2
29/08:00pm 25.8 27.9 22.5 82 2.2 N 15 24 8 13 1009.4 1009.4 0.2
29/07:30pm 25.9 28.0 22.5 81 2.3 N 15 20 8 11 1009.1 1009.1 0.2
29/07:00pm 25.8 28.2 22.2 80 2.4 N 13 24 7 13 1008.7 1008.7 0.2
29/06:30pm 25.5 27.4 22.1 81 2.3 N 15 22 8 12 1008.4 1008.4 0.2
29/06:00pm 25.5 26.4 21.9 80 2.4 NNE 20 30 11 16 1007.6 1007.6 0.2
29/05:30pm 26.3 26.5 21.3 74 3.3 N 22 30 12 16 1007.3 1007.3 0.2
29/05:00pm 26.3 25.2 21.0 72 3.5 N 28 39 15 21 1006.6 1006.6 0.2
29/04:30pm 26.9 25.5 21.2 71 3.8 N 30 39 16 21 1006.3 1006.2 0.2
29/04:00pm 27.4 25.6 21.1 68 4.2 N 32 41 17 22 1006.2 1006.1 0.2
29/03:30pm 27.6 26.2 21.1 67 4.3 N 30 35 16 19 1006.7 1006.7 0.2
29/03:00pm 28.3 26.5 21.1 65 4.8 NNE 32 43 17 23 1006.7 1006.7 0.2
29/02:30pm 27.4 25.8 20.7 67 4.4 N 30 39 16 21 1007.0 1007.0 0.2
29/02:00pm 28.1 25.8 21.2 66 4.6 NNE 35 43 19 23 1007.4 1007.4 0.2
29/01:30pm 27.6 26.4 21.6 70 4.0 N 30 39 16 21 1008.0 1008.0 0.2
29/01:00pm 28.6 27.1 21.8 66 4.6 N 32 43 17 23 1008.5 1008.5 0.2
29/12:30pm 28.3 27.2 21.7 67 4.4 N 30 41 16 22 1008.9 1008.9 0.2
29/12:00pm 27.5 27.4 22.2 73 3.6 N 26 33 14 18 1009.6 1009.6 0.2
29/11:30am 27.0 26.4 21.9 73 3.4 N 28 35 15 19 1010.0 1010.0 0.2
29/11:00am 27.2 28.4 22.5 75 3.2 N 20 28 11 15 1010.6 1010.6 0.2
29/10:30am 25.5 26.3 22.5 83 2.0 N 22 32 12 17 1011.1 1011.1 0.2
29/10:00am 25.4 27.3 22.7 85 1.8 NNE 17 24 9 13 1011.2 1011.2 0.2
29/09:30am 25.3 26.2 22.0 82 2.2 N 20 28 11 15 1011.4 1011.4 0.2
29/09:00am 25.0 27.6 22.0 83 2.0 N 11 15 6 8 1011.5 1011.5 1.6
29/08:30am 25.3 26.5 21.5 79 2.5 NNE 17 26 9 14 1011.5 1011.5 0.0
29/08:00am 25.1 26.8 21.6 81 2.3 NNE 15 19 8 10 1011.5 1011.5 0.0
29/07:30am 24.5 25.4 21.6 84 1.9 NNE 19 24 10 13 1011.1 1011.1 0.0
29/07:00am 25.7 26.0 20.7 74 3.3 NNE 20 30 11 16 1010.6 1010.6 0.0
29/06:30am 25.7 25.9 20.2 71 3.6 NNE 19 26 10 14 1010.4 1010.4 0.0
29/06:00am 25.6 25.9 19.7 70 3.8 NNE 17 26 9 14 1010.2 1010.2 0.0
29/05:30am 25.5 25.0 20.0 71 3.6 NNE 22 32 12 17 1010.1 1010.1 0.0
29/05:00am 25.5 25.4 20.0 71 3.6 NNE 20 28 11 15 1010.0 1010.0 0.0
29/04:30am 25.5 25.9 19.8 70 3.7 NNE 17 26 9 14 1010.0 1010.0 0.0
29/04:00am 25.4 25.2 19.7 70 3.7 NNE 20 30 11 16 1009.6 1009.6 0.0
29/03:30am 25.3 24.5 19.2 69 3.9 NNE 22 30 12 16 1009.6 1009.6 0.0
29/03:00am 25.5 24.3 19.3 68 4.0 NNE 24 30 13 16 1009.8 1009.8 0.0
29/02:30am 25.3 24.2 19.4 70 3.8 NNE 24 30 13 16 1010.0 1010.0 0.0
29/02:00am 25.4 24.8 18.8 67 4.2 NNE 20 28 11 15 1010.5 1010.5 0.0
29/01:30am 25.4 24.2 19.2 68 4.0 NNE 24 30 13 16 1010.8 1010.8 0.0
29/01:00am 25.5 24.1 18.9 67 4.2 NNE 24 30 13 16 1011.2 1011.2 0.0
29/12:30am 25.6 24.5 19.4 68 4.0 NNE 24 30 13 16 1011.6 1011.6 0.0
29/12:00am 25.6 25.6 19.7 70 3.8 NNE 19 26 10 14 1011.7 1011.7 0.0
 
Date/Time
EST
Temp
°C
App
Temp
°C
Dew
Point
°C
Rel
Hum
%
Delta-T
°C
Wind Press
QNH
hPa
Press
MSL
hPa
Rain since
9am
mm
Dir  Spd
km/h
Gust
km/h
Spd
kts
Gust
kts
28/11:30pm 25.5 24.8 20.3 73 3.4 NE 24 30 13 16 1011.8 1011.8 0.0
28/11:00pm 25.2 24.0 20.8 76 2.9 NE 28 33 15 18 1011.6 1011.6 0.0
28/10:30pm 25.3 24.8 20.7 75 3.0 NE 24 33 13 18 1011.7 1011.7 0.0
28/10:00pm 25.3 25.1 21.2 78 2.7 NE 24 33 13 18 1011.7 1011.7 0.0
28/09:30pm 25.4 25.3 20.7 75 3.1 ENE 22 30 12 16 1011.9 1011.9 0.0
28/09:00pm 25.5 26.4 20.8 75 3.1 NE 17 22 9 12 1011.9 1011.9 0.0
28/08:30pm 25.6 25.7 20.4 73 3.4 ENE 20 26 11 14 1012.1 1012.1 0.0
28/08:00pm 25.3 25.5 20.6 75 3.1 NE 20 28 11 15 1011.7 1011.7 0.0
28/07:30pm 25.3 24.8 19.9 72 3.5 ENE 22 33 12 18 1011.2 1011.2 0.0
28/07:00pm 25.3 24.2 20.2 73 3.3 ENE 26 32 14 17 1011.3 1011.3 0.0
28/06:30pm 25.4 25.0 20.2 73 3.4 ENE 22 30 12 16 1011.3 1011.3 0.0
28/06:00pm 25.6 25.3 20.4 73 3.4 ENE 22 30 12 16 1011.2 1011.2 0.0
28/05:30pm 26.0 25.6 20.2 70 3.8 ENE 22 30 12 16 1011.0 1011.0 0.0
28/05:00pm 26.2 25.7 19.9 68 4.1 ENE 22 33 12 18 1010.6 1010.6 0.0
28/04:30pm 27.2 25.6 20.0 64 4.7 ENE 28 35 15 19 1010.2 1010.2 0.0
28/04:00pm 27.8 26.1 19.7 61 5.3 ENE 28 35 15 19 1010.2 1010.2 0.0
28/03:30pm 28.0 26.5 19.5 60 5.5 ENE 26 35 14 19 1010.3 1010.3 0.0
28/03:00pm 28.6 27.2 19.7 58 5.8 ENE 26 35 14 19 1010.6 1010.6 0.0
28/02:30pm 28.5 27.1 19.6 58 5.8 ENE 26 33 14 18 1010.9 1010.9 0.0
28/02:00pm 28.5 25.9 18.7 55 6.3 ENE 30 37 16 20 1011.2 1011.2 0.0
28/01:30pm 28.9 26.3 17.9 51 7.0 ENE 28 33 15 18 1011.6 1011.6 0.0
28/01:00pm 29.3 26.6 16.5 46 8.0 ENE 26 35 14 19 1012.2 1012.2 0.0
28/12:30pm 28.8 26.5 17.6 50 7.1 ENE 26 32 14 17 1012.8 1012.8 0.0
28/12:00pm 28.9 26.3 16.9 48 7.5 ENE 26 33 14 18 1013.3 1013.3 0.0
28/11:30am 29.1 28.1 18.0 51 7.1 ENE 20 32 11 17 1013.7 1013.7 0.0
28/11:00am 28.3 27.4 18.1 54 6.5 E 20 26 11 14 1014.2 1014.2 0.0
28/10:30am 27.7 26.7 17.9 55 6.2 E 20 32 11 17 1014.5 1014.5 0.0
28/10:00am 27.9 27.0 18.3 56 6.1 E 20 30 11 16 1014.3 1014.3 0.0
28/09:30am 28.7 27.7 18.0 52 6.8 E 20 32 11 17 1014.5 1014.5 0.0
28/09:00am 27.6 26.7 19.1 59 5.5 E 22 30 12 16 1014.4 1014.4 0.0
28/08:30am 27.1 26.7 19.4 62 5.0 ESE 20 28 11 15 1014.4 1014.4 0.0
28/08:00am 26.9 26.9 19.7 64 4.7 ESE 19 28 10 15 1014.1 1014.1 0.0
28/07:30am 25.7 26.3 20.2 71 3.6 ESE 17 20 9 11 1014.1 1014.1 0.0
28/07:00am 24.4 25.6 20.7 80 2.4 SE 15 17 8 9 1014.0 1014.0 0.0
28/06:30am 23.3 25.3 20.8 86 1.6 SE 11 15 6 8 1013.4 1013.4 0.0
28/06:00am 23.2 25.0 21.1 88 1.4 SE 13 15 7 8 1012.9 1012.9 0.0
28/05:30am 23.3 25.0 21.0 87 1.5 ESE 13 17 7 9 1012.4 1012.4 0.0
28/05:00am 23.4 25.2 21.1 87 1.5 SE 13 19 7 10 1012.1 1012.1 0.0
28/04:30am 23.5 26.0 21.1 86 1.6 ESE 9 13 5 7 1011.8 1011.8 0.0
28/04:00am 23.6 25.8 20.5 83 2.0 E 9 11 5 6 1011.6 1011.6 0.0
28/03:30am 23.9 25.6 21.0 84 1.9 SE 13 17 7 9 1011.7 1011.7 0.0
28/03:00am 23.9 25.5 20.8 83 2.0 SE 13 15 7 8 1012.0 1012.0 0.0
28/02:30am 24.8 26.5 20.2 75 3.0 E 11 13 6 7 1012.0 1012.0 0.0
28/02:00am 24.9 26.9 20.8 78 2.7 ENE 11 15 6 8 1012.1 1012.1 0.0
28/01:30am 25.0 26.5 20.6 76 2.9 NE 13 15 7 8 1012.4 1012.4 0.0
28/01:00am 24.2 26.9 21.3 84 1.9 SE 9 11 5 6 1013.0 1013.0 0.0
28/12:30am 24.2 26.6 21.5 85 1.8 SE 11 17 6 9 1013.3 1013.3 0.0
28/12:00am 24.4 26.4 21.5 84 1.9 ESE 13 17 7 9 1013.5 1013.5 0.0
 
Date/Time
EST
Temp
°C
App
Temp
°C
Dew
Point
°C
Rel
Hum
%
Delta-T
°C
Wind Press
QNH
hPa
Press
MSL
hPa
Rain since
9am
mm
Dir  Spd
km/h
Gust
km/h
Spd
kts
Gust
kts
27/11:30pm 25.0 26.5 22.0 83 2.0 SE 17 24 9 13 1013.8 1013.8 0.0
27/11:00pm 25.0 25.9 20.9 78 2.7 ESE 17 20 9 11 1013.5 1013.5 0.0
27/10:30pm 25.1 27.4 22.0 83 2.1 E 13 19 7 10 1013.7 1013.7 0.0
27/10:00pm 25.2 26.9 22.4 84 1.9 ESE 17 22 9 12 1013.9 1013.9 0.0
27/09:30pm 24.9 27.4 22.5 86 1.6 E 13 17 7 9 1013.8 1013.8 0.0
27/09:00pm 24.0 26.4 21.6 86 1.6 E 11 17 6 9 1013.5 1013.5 0.0
27/08:30pm 24.8 28.1 21.5 82 2.2 NW 6 7 3 4 1013.1 1013.1 0.0
27/08:00pm 25.2 30.0 22.2 83 2.0 CALM 0 0 0 0 1012.8 1012.8 0.0
27/07:30pm 25.5 30.0 22.2 82 2.2 NW 2 7 1 4 1012.5 1012.5 0.0
27/07:00pm 25.3 29.9 21.7 80 2.4 CALM 0 0 0 0 1012.2 1012.2 0.0
27/06:30pm 25.9 29.7 21.7 77 2.8 NW 4 9 2 5 1011.4 1011.4 0.0
27/06:00pm 26.9 28.6 21.7 73 3.5 NNW 15 19 8 10 1011.0 1011.0 0.0
27/05:30pm 28.4 29.5 20.4 62 5.3 NNW 15 17 8 9 1010.6 1010.6 0.0
27/05:00pm 29.1 29.9 19.8 57 6.1 NNW 15 19 8 10 1010.2 1010.2 0.0
27/04:30pm 29.6 30.0 19.8 55 6.4 NNW 17 19 9 10 1009.9 1009.9 0.0
27/04:00pm 30.6 31.7 19.6 51 7.2 NE 13 19 7 10 1009.8 1009.8 0.0
27/03:30pm 31.0 31.4 19.8 51 7.4 NE 17 20 9 11 1009.8 1009.8 0.0
27/03:00pm 31.0 31.3 20.5 53 7.0 NE 19 28 10 15 1009.9 1009.9 0.0
27/02:30pm 30.7 31.6 20.8 55 6.6 NE 17 26 9 14 1010.2 1010.2 0.0
27/02:00pm 30.8 31.1 20.7 55 6.7 NE 20 28 11 15 1010.8 1010.8 0.0
27/01:30pm 30.8 31.4 21.1 56 6.5 NE 19 26 10 14 1011.2 1011.2 0.0
27/01:00pm 30.6 30.2 21.0 56 6.4 NE 24 32 13 17 1011.6 1011.6 0.0
27/12:30pm 30.4 30.6 21.3 58 6.1 NE 22 30 12 16 1012.3 1012.3 0.0
27/12:00pm 31.0 31.1 19.9 51 7.3 NNE 19 26 10 14 1012.9 1012.9 0.0
27/11:30am 31.3 32.5 19.9 50 7.5 ENE 13 20 7 11 1013.3 1013.3 0.0
27/11:00am 30.2 31.3 20.4 55 6.5 ENE 15 19 8 10 1013.7 1013.7 0.0
27/10:30am 29.2 30.8 20.8 60 5.6 NE 13 22 7 12 1014.2 1014.2 0.0
27/10:00am 28.7 31.3 21.2 64 5.0 SW 9 13 5 7 1014.7 1014.7 0.0

Other Formats:

Comma delimited format used in spreadsheet applications
http://www.bom.gov.au/fwo/IDQ60801/IDQ60801.94294.axf

JavaScript Object Notation format (JSON) in row-major order
http://www.bom.gov.au/fwo/IDQ60801/IDQ60801.94294.json